Flight Track Log - Related Links

Times and Time Zones

All times are in EDT time to prevent confusion due to time zone crossing. See the N143DE flight status page for this flight to view local times or setup timezone preferences in your user account.

Time Position Orientation Groundspeed Altitude Reporting Facility
EDT Latitude Longitude Course Direction KTS MPH feet Rate Location/Type
Fri 09:51:32 PM 30.3972 -89.0264 41° Northeast 130 150 2,500  Level Houston Center
Fri 09:52:35 PM 30.4197 -88.9797 61° Northeast 154 177 4,200 1,756 Climbing Houston Center
Fri 09:53:35 PM 30.4433 -88.9278 62° Northeast 168 193 6,100 1,785 Climbing Houston Center
Fri 09:54:36 PM 30.4694 -88.8733 61° Northeast 181 208 7,800 1,869 Climbing Houston Center
Fri 09:55:37 PM 30.5028 -88.8069 60° Northeast 193 222 9,900 1,854 Climbing Houston Center
Fri 09:56:00 PM 31.4114 -88.0540 41° Northeast  Level Estimated
Fri 09:56:39 PM 30.5286 -88.7494 62° Northeast 197 227 11,600  Level Houston Center
Fri 09:57:39 PM 30.5553 -88.6944 61° Northeast 198 228 13,300 1,438 Climbing Houston Center
Fri 09:58:40 PM 30.5836 -88.6392 59° Northeast 198 228 14,500 1,328 Climbing Houston Center
Fri 09:59:41 PM 30.6122 -88.5808 60° Northeast 206 237 16,000 1,317 Climbing Houston Center
Fri 10:00:43 PM 30.6419 -88.5231 59° Northeast 208 239 17,200 1,073 Climbing Houston Center
Fri 10:01:44 PM 30.6700 -88.4611 62° Northeast 215 247 18,200 984 Climbing Houston Center
Fri 10:02:45 PM 30.7036 -88.4033 56° Northeast 218 251 19,200 934 Climbing Houston Center
Fri 10:03:46 PM 30.7356 -88.3436 58° Northeast 219 252 20,100 885 Climbing Houston Center
Fri 10:04:47 PM 30.7739 -88.2886 51° Northeast 220 253 21,000 934 Climbing Houston Center
Fri 10:05:48 PM 30.8225 -88.2256 48° Northeast 221 254 22,000 885 Climbing Houston Center
Fri 10:06:49 PM 30.8642 -88.1722 48° Northeast 223 257 22,800 738 Climbing Houston Center
Fri 10:07:50 PM 30.9050 -88.1181 49° Northeast 225 259 23,500 689 Climbing Houston Center
Fri 10:08:51 PM 30.9486 -88.0611 48° Northeast 226 260 24,200 639 Climbing Houston Center
Fri 10:09:52 PM 30.9900 -88.0056 49° Northeast 227 261 24,800 443 Climbing Houston Center
Fri 10:10:53 PM 31.0328 -87.9494 48° Northeast 232 267 25,100 148 Climbing Houston Center
Fri 10:11:54 PM 31.0800 -87.8833 50° Northeast 260 299 25,100  Level Houston Center
Fri 10:12:55 PM 31.1297 -87.8158 49° Northeast 273 314 25,100  Level Houston Center
Fri 10:13:56 PM 31.1825 -87.7453 49° Northeast 286 329 25,100  Level Houston Center
Fri 10:14:57 PM 31.2419 -87.6675 48° Northeast 287 330 25,100  Level Houston Center
Fri 10:15:58 PM 31.2936 -87.5953 50° Northeast 290 334 25,100  Level Houston Center
Fri 10:16:59 PM 31.3467 -87.5228 49° Northeast 292 336 25,100  Level Houston Center
Fri 10:18:00 PM 31.3994 -87.4503 50° Northeast 293 337 25,100  Level Houston Center
Fri 10:18:22 PM 31.4250 -87.4214 44° Northeast 285 328 25,100  Level Atlanta Center
Fri 10:19:22 PM 31.4789 -87.3503 48° Northeast 285 328 25,100  Level Atlanta Center
Fri 10:20:22 PM 31.5331 -87.2792 48° Northeast 285 328 25,100  Level Atlanta Center
Fri 10:21:22 PM 31.5850 -87.2056 50° Northeast 285 328 25,100  Level Atlanta Center
Fri 10:22:22 PM 31.6411 -87.1367 46° Northeast 285 328 25,100  Level Atlanta Center
Fri 10:23:22 PM 31.6947 -87.0800 42° Northeast 285 328 25,100  Level Atlanta Center
Fri 10:24:22 PM 31.7586 -87.0236 37° Northeast 285 328 25,100  Level Atlanta Center
Fri 10:25:22 PM 31.8225 -86.9694 36° Northeast 285 328 25,100  Level Atlanta Center
Fri 10:26:22 PM 31.8864 -86.9103 38° Northeast 285 328 25,100  Level Atlanta Center
Fri 10:27:22 PM 31.9506 -86.8536 37° Northeast 280 322 25,100  Level Atlanta Center
Fri 10:28:22 PM 32.0122 -86.7944 39° Northeast 280 322 25,100  Level Atlanta Center
Fri 10:29:22 PM 32.0761 -86.7375 37° Northeast 280 322 25,100  Level Atlanta Center
Fri 10:30:22 PM 32.1464 -86.6783 35° Northeast 280 322 25,100  Level Atlanta Center
Fri 10:31:22 PM 32.2122 -86.6214 36° Northeast 280 322 25,100  Level Atlanta Center
Fri 10:32:22 PM 32.2781 -86.5619 37° Northeast 285 328 25,100  Level Atlanta Center
Fri 10:33:22 PM 32.3400 -86.5022 39° Northeast 285 328 25,100  Level Atlanta Center
Fri 10:34:22 PM 32.4036 -86.4425 38° Northeast 285 328 25,100  Level Atlanta Center
Fri 10:35:22 PM 32.4656 -86.3750 43° Northeast 280 322 25,100  Level Atlanta Center
Fri 10:36:22 PM 32.5250 -86.3225 37° Northeast 295 339 25,100  Level Atlanta Center
Fri 10:37:22 PM 32.5908 -86.2600 39° Northeast 300 345 25,100  Level Atlanta Center
Fri 10:38:22 PM 32.6608 -86.1953 38° Northeast 300 345 25,100  Level Atlanta Center
Fri 10:39:22 PM 32.7244 -86.1375 37° Northeast 300 345 25,100  Level Atlanta Center
Fri 10:40:22 PM 32.7900 -86.0772 38° Northeast 295 339 25,100  Level Atlanta Center
Fri 10:41:22 PM 32.8517 -86.0169 39° Northeast 290 334 25,100  Level Atlanta Center
Fri 10:42:22 PM 32.9153 -85.9564 39° Northeast 285 328 25,100  Level Atlanta Center
Fri 10:43:22 PM 32.9789 -85.8961 38° Northeast 285 328 25,100  Level Atlanta Center
Fri 10:44:22 PM 33.0403 -85.8378 39° Northeast 285 328 25,100  Level Atlanta Center
Fri 10:45:22 PM 33.1036 -85.7797 38° Northeast 280 322 25,100  Level Atlanta Center
Fri 10:46:22 PM 33.1650 -85.7214 38° Northeast 280 322 25,100  Level Atlanta Center
Fri 10:47:22 PM 33.2283 -85.6631 38° Northeast 280 322 25,100  Level Atlanta Center
Fri 10:48:22 PM 33.2897 -85.5994 41° Northeast 280 322 25,100  Level Atlanta Center
Fri 10:49:22 PM 33.3531 -85.5433 36° Northeast 280 322 25,100  Level Atlanta Center
Fri 10:50:22 PM 33.4164 -85.4847 38° Northeast 280 322 25,100  Level Atlanta Center
Fri 10:51:22 PM 33.4797 -85.4261 38° Northeast 280 322 25,100  Level Atlanta Center
Fri 10:52:22 PM 33.5431 -85.3622 40° Northeast 286 329 25,100  Level Atlanta Center
Fri 10:53:22 PM 33.6061 -85.3033 38° Northeast 286 329 25,100  Level Atlanta Center
Fri 10:54:22 PM 33.6672 -85.2419 40° Northeast 280 322 25,100  Level Atlanta Center
Fri 10:55:22 PM 33.7242 -85.1903 37° Northeast 280 322 25,100  Level Atlanta Center
Fri 10:56:22 PM 33.7853 -85.1286 40° Northeast 280 322 25,100  Level Atlanta Center
Fri 10:57:22 PM 33.8464 -85.0692 39° Northeast 280 322 25,100  Level Atlanta Center
Fri 10:58:22 PM 33.9094 -85.0100 38° Northeast 280 322 25,100  Level Atlanta Center
Fri 10:59:22 PM 33.9725 -84.9506 38° Northeast 280 322 25,100  Level Atlanta Center
Fri 11:00:22 PM 34.0378 -84.8836 40° Northeast 280 322 25,100  Level Atlanta Center
Fri 11:01:22 PM 34.1006 -84.8239 38° Northeast 280 322 25,100  Level Atlanta Center
Fri 11:02:22 PM 34.1636 -84.7594 40° Northeast 286 329 25,100  Level Atlanta Center
Fri 11:03:22 PM 34.2267 -84.6994 38° Northeast 286 329 25,100  Level Atlanta Center
Fri 11:04:22 PM 34.2875 -84.6372 40° Northeast 281 323 25,100  Level Atlanta Center
Fri 11:05:22 PM 34.3503 -84.5772 38° Northeast 281 323 25,100  Level Atlanta Center
Fri 11:06:22 PM 34.4028 -84.5222 41° Northeast 281 323 25,100  Level Atlanta Center
Fri 11:07:22 PM 34.4678 -84.4619 37° Northeast 286 329 25,100  Level Atlanta Center
Fri 11:08:22 PM 34.5306 -84.3994 39° Northeast 286 329 25,100  Level Atlanta Center
Fri 11:09:22 PM 34.5911 -84.3392 39° Northeast 280 322 25,100  Level Atlanta Center
Fri 11:10:22 PM 34.6539 -84.2761 40° Northeast 280 322 25,100  Level Atlanta Center
Fri 11:11:22 PM 34.7167 -84.2183 37° Northeast 280 322 25,100  Level Atlanta Center
Fri 11:12:22 PM 34.7792 -84.1525 41° Northeast 280 322 25,100  Level Atlanta Center
Fri 11:13:22 PM 34.8419 -84.0919 38° Northeast 280 322 25,100  Level Atlanta Center
Fri 11:14:22 PM 34.9044 -84.0286 40° Northeast 280 322 25,100  Level Atlanta Center
Fri 11:15:22 PM 34.9631 -83.9678 40° Northeast 280 322 25,100  Level Atlanta Center
Fri 11:16:22 PM 35.0256 -83.9069 39° Northeast 280 322 25,100  Level Atlanta Center
Fri 11:17:22 PM 35.0839 -83.8458 41° Northeast 280 322 25,100  Level Atlanta Center
Fri 11:18:22 PM 35.1422 -83.7847 41° Northeast 280 322 25,100  Level Atlanta Center
Fri 11:19:22 PM 35.2047 -83.7261 37° Northeast 280 322 25,100  Level Atlanta Center
Fri 11:20:22 PM 35.2628 -83.6647 41° Northeast 280 322 25,100 -300 Level Atlanta Center
Fri 11:21:22 PM 35.3253 -83.6036 39° Northeast 280 322 24,500 -450 Descending Atlanta Center
Fri 11:22:22 PM 35.3917 -83.5394 38° Northeast 285 328 24,200 -200 Descending Atlanta Center
Fri 11:23:22 PM 35.4519 -83.4753 41° Northeast 285 328 24,100 -650 Descending Atlanta Center
Fri 11:24:22 PM 35.5122 -83.4086 42° Northeast 285 328 22,900 -1,300 Descending Atlanta Center
Fri 11:25:22 PM 35.5786 -83.3417 39° Northeast 290 334 21,500 -1,300 Descending Atlanta Center
Fri 11:26:22 PM 35.6469 -83.2722 40° Northeast 298 343 20,300 -700 Descending Atlanta Center
Fri 11:27:22 PM 35.7008 -83.2153 41° Northeast 298 343 20,100 -100 Descending Atlanta Center
Fri 11:28:22 PM 35.7569 -83.1558 41° Northeast 278 320 20,100 -200 Level Atlanta Center
Fri 11:29:22 PM 35.8128 -83.0989 40° Northeast 266 306 19,700 -1,050 Descending Atlanta Center
Fri 11:30:22 PM 35.8728 -83.0342 41° Northeast 266 306 18,000 -1,650 Descending Atlanta Center
Fri 11:31:22 PM 35.9369 -82.9719 38° Northeast 284 327 16,400 -1,500 Descending Atlanta Center
Fri 11:32:22 PM 35.9947 -82.9147 39° Northeast 279 321 15,000 -1,450 Descending Atlanta Center
Fri 11:33:22 PM 36.0483 -82.8547 42° Northeast 267 307 13,500 -1,700 Descending Atlanta Center
Fri 11:34:22 PM 36.1061 -82.7975 39° Northeast 261 300 11,600 -1,900 Descending Atlanta Center
Fri 11:35:22 PM 36.1619 -82.7400 40° Northeast 261 300 9,700 -1,750 Descending Atlanta Center
Fri 11:36:22 PM 36.2156 -82.6825 41° Northeast 256 295 8,100 -1,600 Descending Atlanta Center
Fri 11:37:22 PM 36.2711 -82.6250 40° Northeast 251 289 6,500 -1,500 Descending Atlanta Center
Fri 11:38:22 PM 36.3228 -82.5775 37° Northeast 246 283 5,100 -1,300 Descending Atlanta Center
Fri 11:39:22 PM 36.3722 -82.5250 41° Northeast 236 272 3,900 -1,200 Descending Atlanta Center
Fri 11:41:00 PM 36.4597 -82.4069 39° Northeast  Level FlightAware Approximate
Fri 11:48:00 PM 36.4667 -82.4000 39° Northeast  Level FlightAware Approximate
Fri 11:49:00 PM 36.4752 -82.4074 39° Northeast  Level Estimated
Fri 11:50:00 PM 36.4752 -82.4074 39° Northeast  Level Estimated

Login

Don't have an account? Register now (free) for customized features, flight alerts, and more!